Time;durP1;ratioP1;P1;durP2;ratioP2;P2;SDS_P1;SDS_P2;PMS_P1;PMS_P2;Temp;Humidity;BMP_temperature;BMP_pressure;BME280_temperature;BME280_humidity;BME280_pressure;Samples;Min_cycle;Max_cycle;Signal;HPM_P1;HPM_P2
2021/07/18 14:28:08;;;;;;;11.38;10.27;;;38.90;46.50;;;;;;6299837;22;20192;-85
2021/07/18 14:30:38;;;;;;;10.50;9.50;;;38.20;49.00;;;;;;6292914;22;20709;-86
2021/07/18 14:33:09;;;;;;;11.50;10.40;;;37.80;49.70;;;;;;6293034;22;20222;-86
2021/07/18 14:35:53;;;;;;;10.73;9.93;;;38.00;50.80;;;;;;6292967;22;20317;-86
2021/07/18 14:38:39;;;;;;;11.10;10.13;;;37.50;49.30;;;;;;6323051;22;20164;-86
2021/07/18 14:41:14;;;;;;;12.60;11.35;;;38.50;47.30;;;;;;6269044;22;20239;-85
2021/07/18 14:43:48;;;;;;;13.37;12.17;;;39.20;42.90;;;;;;6268252;22;20794;-86
2021/07/18 14:46:33;;;;;;;11.27;10.27;;;36.70;49.10;;;;;;6293209;22;20894;-86
2021/07/18 14:52:25;;;;;;;12.43;11.32;;;39.30;44.00;;;;;;6320827;22;20822;-86
2021/07/18 14:57:38;;;;;;;12.38;11.38;;;39.60;44.20;;;;;;6319101;22;20544;-86
2021/07/18 15:00:11;;;;;;;12.57;11.50;;;39.60;42.40;;;;;;6295398;22;20164;-85
2021/07/18 15:02:44;;;;;;;13.07;11.73;;;37.60;46.20;;;;;;6290557;22;20163;-86
2021/07/18 15:07:56;;;;;;;12.27;11.18;;;40.50;44.10;;;;;;6323400;22;20167;-87
2021/07/18 15:10:25;;;;;;;14.02;12.82;;;;;;;;;;6283469;22;20172;-87
2021/07/18 15:12:53;;;;;;;13.15;11.95;;;;;;;;;;6294902;22;20161;-86
2021/07/18 15:15:23;;;;;;;13.25;12.15;;;;;;;;;;6265615;22;20191;-86
2021/07/18 15:17:52;;;;;;;13.93;12.70;;;;;;;;;;6286606;22;20164;-86
2021/07/18 15:22:56;;;;;;;14.48;13.18;;;;;;;;;;6320276;22;20168;-86
2021/07/18 15:25:26;;;;;;;15.38;13.52;;;;;;;;;;6293024;22;20345;-86
2021/07/18 15:27:52;;;;;;;16.02;14.68;;;;;;;;;;6293677;22;20389;-85
2021/07/18 15:30:19;;;;;;;16.40;14.90;;;;;;;;;;6292362;22;20261;-85
2021/07/18 15:32:46;;;;;;;15.60;14.10;;;;;;;;;;6290810;22;20212;-85
2021/07/18 15:35:13;;;;;;;16.17;14.43;;;;;;;;;;6291692;22;20565;-85
2021/07/18 15:37:40;;;;;;;15.00;13.60;;;;;;;;;;6319932;22;20402;-85
2021/07/18 15:40:10;;;;;;;15.47;14.17;;;;;;;;;;6266184;22;20161;-86
2021/07/18 15:42:43;;;;;;;16.93;15.20;;;;;;;;;;6320719;22;20532;-86
2021/07/18 15:45:23;;;;;;;16.30;14.90;;;;;;;;;;6314240;22;20160;-86
2021/07/18 15:53:37;;;;;;;15.67;14.17;;;;;;;;;;6317172;22;20665;-88
2021/07/18 15:56:09;;;;;;;14.52;13.27;;;;;;;;;;6310063;22;20262;-85
2021/07/18 15:58:40;;;;;;;16.25;14.70;;;;;;;;;;6320443;22;20622;-85
2021/07/18 16:01:09;;;;;;;14.77;13.48;;;;;;;;;;6291763;22;20447;-84
2021/07/18 16:03:38;;;;;;;15.68;14.25;;;37.80;42.70;;;;;;6289551;22;20168;-86
2021/07/18 16:06:08;;;;;;;16.58;14.95;;;38.30;43.90;;;;;;6317667;22;20164;-84
2021/07/18 16:08:46;;;;;;;16.95;15.35;;;39.00;40.20;;;;;;6293358;22;20171;-84
2021/07/18 16:11:17;;;;;;;15.30;13.90;;;38.50;43.30;;;;;;6283122;22;20389;-85
2021/07/18 16:13:47;;;;;;;15.38;13.40;;;39.50;42.70;;;;;;6293606;22;20164;-84
2021/07/18 16:16:17;;;;;;;14.38;13.07;;;39.40;42.50;;;;;;6293195;22;20191;-86
2021/07/18 16:18:45;;;;;;;14.73;13.52;;;40.70;40.10;;;;;;6292294;22;20213;-85
2021/07/18 16:23:54;;;;;;;14.30;13.02;;;41.30;39.30;;;;;;6322804;22;20156;-85
2021/07/18 16:26:23;;;;;;;14.00;12.80;;;41.00;39.80;;;;;;6293864;22;20501;-84
2021/07/18 16:28:50;;;;;;;14.82;13.50;;;41.00;38.60;;;;;;6292989;22;20187;-85
2021/07/18 16:31:21;;;;;;;13.82;12.50;;;39.10;40.80;;;;;;6292634;22;20209;-85
2021/07/18 16:33:47;;;;;;;14.23;13.02;;;39.00;41.50;;;;;;6293444;22;20543;-84
2021/07/18 16:36:23;;;;;;;14.52;13.15;;;38.60;42.80;;;;;;6320283;22;20307;-84
2021/07/18 16:39:01;;;;;;;13.55;12.35;;;39.40;41.70;;;;;;6293314;22;20164;-92
2021/07/18 16:41:43;;;;;;;14.00;12.60;;;38.80;41.90;;;;;;6314401;22;20175;-89
2021/07/18 16:44:16;;;;;;;14.25;12.85;;;39.60;40.40;;;;;;6293495;22;20564;-89
2021/07/18 16:47:10;;;;;;;14.52;13.07;;;40.00;38.40;;;;;;6292795;22;20160;-84
2021/07/18 16:49:47;;;;;;;13.23;11.95;;;40.00;38.80;;;;;;6291857;22;20188;-85
2021/07/18 16:52:20;;;;;;;13.90;12.60;;;40.40;39.30;;;;;;6294211;22;20166;-87
2021/07/18 16:54:48;;;;;;;13.07;11.90;;;40.00;39.70;;;;;;6293352;22;20164;-86
2021/07/18 16:57:17;;;;;;;13.73;12.32;;;39.70;39.50;;;;;;6292557;22;20739;-87
2021/07/18 16:59:43;;;;;;;12.63;11.32;;;39.00;41.30;;;;;;6291031;22;20540;-87
2021/07/18 17:02:09;;;;;;;12.27;11.05;;;39.00;41.00;;;;;;6295045;22;20529;-84
2021/07/18 17:04:37;;;;;;;11.83;10.67;;;39.00;40.80;;;;;;6293308;22;20477;-84
2021/07/18 17:07:10;;;;;;;12.07;10.93;;;38.50;41.60;;;;;;6285517;22;20160;-85
2021/07/18 17:09:39;;;;;;;12.05;10.95;;;38.80;41.10;;;;;;6293853;22;20171;-86
2021/07/18 17:12:47;;;;;;;11.18;10.23;;;39.30;40.40;;;;;;6294735;22;20167;-85
2021/07/18 17:15:50;;;;;;;10.63;9.77;;;39.00;41.30;;;;;;6323282;22;20505;-88
2021/07/18 17:18:21;;;;;;;10.48;9.57;;;38.40;43.00;;;;;;6293265;22;20168;-87
2021/07/18 18:51:51;;;;;;;4.73;4.33;;;25.10;83.70;;;;;;6289010;22;20427;-87
2021/07/18 18:54:29;;;;;;;4.73;4.30;;;24.90;86.30;;;;;;6261865;22;20460;-87
2021/07/18 18:56:59;;;;;;;5.80;4.60;;;24.70;89.10;;;;;;6263087;22;20754;-87
2021/07/18 18:59:37;;;;;;;4.60;4.10;;;24.40;91.40;;;;;;6262688;22;20392;-87
2021/07/18 19:02:18;;;;;;;;;;;;;;;;;;;;;
2021/07/18 19:04:51;;;;;;;4.30;4.00;;;23.90;94.30;;;;;;6289862;22;20495;-87
2021/07/18 19:10:15;;;;;;;4.27;3.90;;;23.60;96.90;;;;;;6290975;22;20638;-88
2021/07/18 19:13:19;;;;;;;;;;;;;;;;;;;;;
2021/07/18 19:15:59;;;;;;;6.10;5.50;;;23.20;99.90;;;;;;6296122;22;20852;-88
2021/07/18 19:18:49;;;;;;;4.53;4.13;;;22.90;99.90;;;;;;6267235;22;20384;-87
2021/07/18 19:21:21;;;;;;;4.63;4.23;;;22.80;99.90;;;;;;6268912;22;20426;-87
2021/07/18 19:23:57;;;;;;;5.00;4.10;;;22.60;99.90;;;;;;6296269;22;20873;-88
2021/07/18 19:26:28;;;;;;;6.30;4.13;;;22.50;99.90;;;;;;6266515;22;20817;-87
2021/07/18 19:28:57;;;;;;;4.47;4.03;;;22.30;99.90;;;;;;6270149;22;20394;-88
2021/07/18 19:31:28;;;;;;;6.40;4.20;;;22.20;99.90;;;;;;6270553;22;20410;-88
2021/07/18 19:33:56;;;;;;;4.13;3.73;;;22.00;99.90;;;;;;6270013;22;20620;-87
2021/07/18 19:36:28;;;;;;;4.20;3.80;;;22.00;99.90;;;;;;6268402;22;20446;-90
2021/07/18 19:38:54;;;;;;;4.77;4.30;;;22.00;99.90;;;;;;6269402;22;20388;-89
2021/07/18 19:41:28;;;;;;;4.00;3.70;;;21.90;99.90;;;;;;6269085;22;20396;-90
2021/07/18 19:43:59;;;;;;;4.53;4.13;;;21.80;99.90;;;;;;6271249;22;20929;-90
2021/07/18 19:46:26;;;;;;;3.60;3.40;;;21.80;99.90;;;;;;6298479;22;20661;-88
2021/07/18 19:48:59;;;;;;;5.20;4.00;;;21.60;99.90;;;;;;6268438;22;20388;-88
2021/07/18 19:51:30;;;;;;;4.63;4.23;;;21.60;99.90;;;;;;6270110;22;20388;-89
2021/07/18 19:53:59;;;;;;;4.17;3.77;;;21.50;99.90;;;;;;6266442;22;20392;-89
2021/07/18 19:56:27;;;;;;;5.10;4.40;;;21.40;99.90;;;;;;6238846;22;20835;-88
2021/07/18 19:58:55;;;;;;;4.10;3.80;;;21.50;99.90;;;;;;6238244;22;20700;-88
2021/07/18 20:01:23;;;;;;;5.53;3.60;;;21.40;99.90;;;;;;6240131;22;20400;-88
2021/07/18 20:03:49;;;;;;;4.60;3.60;;;21.40;99.90;;;;;;6238925;22;20411;-91
2021/07/18 20:06:15;;;;;;;4.07;3.67;;;21.40;99.90;;;;;;6237049;22;20472;-89
2021/07/18 20:08:42;;;;;;;7.53;3.97;;;21.40;99.90;;;;;;6238728;22;20404;-89
2021/07/18 20:11:09;;;;;;;3.50;3.20;;;21.30;99.90;;;;;;6240975;22;20423;-88
2021/07/18 20:13:41;;;;;;;3.43;3.17;;;21.40;99.90;;;;;;6238261;22;20389;-88
2021/07/18 20:16:07;;;;;;;3.67;3.20;;;21.30;99.90;;;;;;6267489;22;20479;-88
2021/07/18 20:18:47;;;;;;;3.53;3.23;;;21.30;99.90;;;;;;6237906;22;20490;-89
2021/07/18 20:21:28;;;;;;;5.77;3.23;;;21.40;99.90;;;;;;6267818;22;20385;-88
2021/07/18 20:23:59;;;;;;;5.93;3.63;;;21.50;99.90;;;;;;6239249;22;20751;-89
2021/07/18 20:26:31;;;;;;;4.90;3.17;;;21.50;99.90;;;;;;6238945;22;20436;-89
2021/07/18 20:29:04;;;;;;;3.60;3.30;;;21.50;99.90;;;;;;6235636;22;20411;-89
2021/07/18 20:31:39;;;;;;;3.07;2.87;;;21.60;99.90;;;;;;6237980;22;20439;-89
2021/07/18 20:34:15;;;;;;;3.40;3.10;;;21.60;99.90;;;;;;6265312;22;20869;-90
2021/07/18 20:36:45;;;;;;;3.93;3.00;;;21.60;99.90;;;;;;6264094;22;20463;-89
2021/07/18 20:39:13;;;;;;;2.93;2.70;;;21.60;99.90;;;;;;6240333;22;20530;-91
2021/07/18 20:41:39;;;;;;;3.53;3.03;;;21.70;99.90;;;;;;6267560;22;20373;-89
2021/07/18 20:44:04;;;;;;;4.10;3.30;;;21.60;99.90;;;;;;6268935;22;20208;-90
2021/07/18 20:47:02;;;;;;;;;;;;;;;;;;;;;
2021/07/18 20:49:27;;;;;;;4.10;3.70;;;21.70;99.90;;;;;;6264620;22;20281;-87
2021/07/18 20:51:53;;;;;;;3.73;3.20;;;21.60;99.90;;;;;;6269666;22;20420;-87
2021/07/18 20:54:20;;;;;;;2.93;2.73;;;21.70;99.90;;;;;;6269203;22;20157;-88
2021/07/18 20:56:46;;;;;;;3.43;3.13;;;21.60;99.90;;;;;;6243085;22;20197;-86
2021/07/18 20:59:12;;;;;;;3.27;2.97;;;21.50;99.90;;;;;;6269246;22;20407;-87
2021/07/18 21:01:39;;;;;;;3.00;2.80;;;21.40;99.90;;;;;;6268269;22;20192;-86
2021/07/18 21:04:05;;;;;;;3.20;3.00;;;21.30;99.90;;;;;;6268637;22;20169;-85
2021/07/18 21:06:33;;;;;;;3.50;3.20;;;21.30;99.90;;;;;;6268690;22;20475;-86
2021/07/18 21:08:59;;;;;;;5.07;3.20;;;21.30;99.90;;;;;;6268853;22;20416;-87
2021/07/18 21:11:25;;;;;;;4.43;3.37;;;21.30;99.90;;;;;;6268495;22;20396;-86
2021/07/18 21:13:53;;;;;;;3.77;2.40;;;21.20;99.90;;;;;;6266028;22;20481;-86
2021/07/18 21:16:19;;;;;;;4.93;3.37;;;21.20;99.90;;;;;;6266351;22;20189;-86
2021/07/18 21:18:49;;;;;;;3.73;3.40;;;21.10;99.90;;;;;;6268263;22;20768;-86
2021/07/18 21:21:34;;;;;;;3.40;3.07;;;21.00;99.90;;;;;;6296021;22;20420;-85
2021/07/18 21:24:00;;;;;;;3.50;3.20;;;21.00;99.90;;;;;;6269387;22;20398;-86
2021/07/18 21:26:26;;;;;;;3.40;3.20;;;21.00;99.90;;;;;;6268011;22;20423;-86
2021/07/18 21:28:52;;;;;;;3.00;2.70;;;21.00;99.90;;;;;;6268055;22;20223;-87
2021/07/18 21:31:19;;;;;;;3.37;3.00;;;21.00;99.90;;;;;;6268295;22;20161;-87
2021/07/18 21:33:45;;;;;;;4.80;2.90;;;21.00;99.90;;;;;;6267931;22;20776;-87
2021/07/18 21:36:14;;;;;;;4.90;3.10;;;21.00;99.90;;;;;;6269771;22;20565;-87
2021/07/18 21:38:40;;;;;;;3.40;3.07;;;20.90;99.90;;;;;;6267344;22;20388;-87
2021/07/18 21:41:07;;;;;;;3.67;3.33;;;20.80;99.90;;;;;;6269229;22;20875;-87
2021/07/18 21:43:34;;;;;;;3.20;2.90;;;20.80;99.90;;;;;;6243351;22;20380;-86
2021/07/18 21:46:00;;;;;;;3.30;2.80;;;20.70;99.90;;;;;;6268847;22;20411;-87
2021/07/18 21:48:26;;;;;;;3.37;3.07;;;20.70;99.90;;;;;;6269822;22;20384;-87
2021/07/18 21:51:00;;;;;;;3.60;3.30;;;20.60;99.90;;;;;;6265953;22;20162;-87
2021/07/18 21:53:26;;;;;;;3.33;3.07;;;20.40;99.90;;;;;;6266470;22;20885;-87
2021/07/18 21:55:54;;;;;;;3.53;3.23;;;20.40;99.90;;;;;;6270324;22;20518;-87
2021/07/18 21:58:27;;;;;;;3.67;3.30;;;20.40;99.90;;;;;;6269275;22;20157;-87
2021/07/18 22:00:57;;;;;;;3.57;3.27;;;20.40;99.90;;;;;;6267716;22;20396;-89
2021/07/18 22:03:23;;;;;;;3.60;3.30;;;20.30;99.90;;;;;;6266053;22;20502;-89
2021/07/18 22:05:49;;;;;;;3.40;3.07;;;20.30;99.90;;;;;;6270920;22;20700;-89
2021/07/18 22:08:15;;;;;;;4.53;3.33;;;20.20;99.90;;;;;;6264616;22;20162;-88
2021/07/18 22:10:42;;;;;;;3.90;3.60;;;20.20;99.90;;;;;;6269451;22;20806;-88
2021/07/18 22:13:09;;;;;;;5.37;3.90;;;20.10;99.90;;;;;;6269890;22;20158;-89
2021/07/18 22:15:45;;;;;;;4.97;3.60;;;20.00;99.90;;;;;;6299230;22;20478;-91
2021/07/18 22:18:12;;;;;;;4.20;3.80;;;19.80;99.90;;;;;;6265268;22;20425;-91
2021/07/18 22:20:40;;;;;;;4.17;3.77;;;19.50;99.90;;;;;;6271633;22;20764;-92
2021/07/18 22:23:08;;;;;;;3.60;3.30;;;19.40;99.90;;;;;;6268126;22;20487;-92
2021/07/18 22:25:35;;;;;;;4.00;3.60;;;19.30;99.90;;;;;;6265979;22;20380;-91
2021/07/18 22:28:02;;;;;;;3.93;3.53;;;19.10;99.90;;;;;;6267392;22;20414;-91
2021/07/18 22:30:29;;;;;;;5.20;3.67;;;19.00;99.90;;;;;;6269001;22;20383;-91
2021/07/18 22:32:55;;;;;;;4.20;3.70;;;19.00;99.90;;;;;;6269216;22;20384;-91
2021/07/18 22:35:24;;;;;;;3.73;3.43;;;19.00;99.90;;;;;;6265452;22;20489;-91
2021/07/18 22:37:51;;;;;;;6.03;3.53;;;18.90;99.90;;;;;;6270195;22;20391;-91
2021/07/18 22:40:18;;;;;;;4.50;3.63;;;18.90;99.90;;;;;;6268961;22;20426;-90
2021/07/18 22:42:48;;;;;;;3.93;3.63;;;18.90;99.90;;;;;;6290980;22;20467;-90
2021/07/18 22:45:16;;;;;;;5.60;3.47;;;18.80;99.90;;;;;;6268627;22;20396;-90
2021/07/18 22:47:43;;;;;;;4.20;3.80;;;18.80;99.90;;;;;;6268336;22;20392;-90
2021/07/18 22:50:15;;;;;;;4.23;3.83;;;18.70;99.90;;;;;;6296046;22;20380;-89
2021/07/18 22:52:44;;;;;;;4.73;4.33;;;18.60;99.90;;;;;;6269231;22;20404;-89
2021/07/18 22:55:25;;;;;;;4.90;3.07;;;18.60;99.90;;;;;;6267787;22;20435;-88
2021/07/18 22:58:13;;;;;;;3.80;3.40;;;18.50;99.90;;;;;;6296268;22;20483;-90
2021/07/18 23:00:43;;;;;;;3.87;3.47;;;18.50;99.90;;;;;;6262806;22;20764;-89
2021/07/18 23:03:18;;;;;;;3.60;3.23;;;18.50;99.90;;;;;;6270093;22;20403;-89
2021/07/18 23:05:45;;;;;;;4.00;3.20;;;18.50;99.90;;;;;;6267611;22;20482;-89
2021/07/18 23:08:13;;;;;;;6.20;3.53;;;18.50;99.90;;;;;;6292576;22;20395;-89
2021/07/18 23:10:39;;;;;;;4.10;3.70;;;18.50;99.90;;;;;;6269140;22;20905;-89
2021/07/18 23:13:05;;;;;;;4.93;3.70;;;18.40;99.90;;;;;;6268326;22;20392;-89
2021/07/18 23:15:31;;;;;;;3.73;3.20;;;18.40;99.90;;;;;;6268964;22;20462;-89
2021/07/18 23:17:59;;;;;;;3.93;3.53;;;18.40;99.90;;;;;;6270435;22;20399;-89
2021/07/18 23:20:26;;;;;;;3.87;3.57;;;18.40;99.90;;;;;;6269666;22;20384;-89
2021/07/18 23:22:53;;;;;;;4.63;3.57;;;18.40;99.90;;;;;;6296799;22;20402;-89
2021/07/18 23:25:19;;;;;;;5.70;3.63;;;18.30;99.90;;;;;;6268372;22;20383;-89
2021/07/18 23:27:45;;;;;;;3.57;3.27;;;18.40;99.90;;;;;;6244467;22;20253;-89
2021/07/18 23:30:15;;;;;;;5.17;3.77;;;18.40;99.90;;;;;;6297458;22;20391;-88
2021/07/18 23:32:41;;;;;;;4.33;3.47;;;18.50;99.90;;;;;;6266352;22;20785;-89
2021/07/18 23:35:13;;;;;;;5.53;3.80;;;18.60;99.90;;;;;;6268509;22;20432;-88
2021/07/18 23:37:40;;;;;;;4.57;4.00;;;18.80;99.90;;;;;;6268963;22;20395;-88
2021/07/18 23:40:11;;;;;;;3.67;3.37;;;18.70;99.90;;;;;;6290546;22;20874;-88
2021/07/18 23:42:37;;;;;;;3.77;3.47;;;18.70;99.90;;;;;;6271310;22;20561;-89
2021/07/18 23:45:05;;;;;;;4.20;3.80;;;18.70;99.90;;;;;;6270126;22;20465;-89
2021/07/18 23:47:43;;;;;;;3.80;3.50;;;18.60;99.90;;;;;;6296346;22;20666;-89
2021/07/18 23:50:09;;;;;;;4.60;4.20;;;18.40;99.90;;;;;;6269695;22;20437;-89
2021/07/18 23:52:35;;;;;;;4.37;3.50;;;18.30;99.90;;;;;;6297422;22;20407;-89
2021/07/18 23:55:03;;;;;;;5.57;4.07;;;18.20;99.90;;;;;;6272213;22;20712;-89
2021/07/18 23:57:29;;;;;;;4.60;3.03;;;18.10;99.90;;;;;;6269490;22;20477;-89
2021/07/18 23:59:54;;;;;;;4.23;3.73;;;18.00;99.90;;;;;;6270940;22;20465;-90
